createdAt,value
2019-03-30T00:00:02.582Z,79.70
2019-03-30T00:02:31.547Z,79.60
2019-03-30T00:05:00.579Z,80.30
2019-03-30T00:07:29.359Z,81.30
2019-03-30T00:09:58.318Z,80.90
2019-03-30T00:12:27.099Z,81.50
2019-03-30T00:14:55.925Z,81.00
2019-03-30T00:17:24.731Z,81.40
2019-03-30T00:19:54.305Z,81.30
2019-03-30T00:22:23.384Z,80.60
2019-03-30T00:24:52.418Z,81.90
2019-03-30T00:27:21.297Z,82.30
2019-03-30T00:29:50.162Z,82.30
2019-03-30T00:32:19.064Z,82.90
2019-03-30T00:34:47.887Z,82.90
2019-03-30T00:37:16.968Z,83.70
2019-03-30T00:39:45.796Z,84.30
2019-03-30T00:42:14.612Z,84.40
2019-03-30T00:44:43.483Z,83.70
2019-03-30T00:47:13.455Z,84.10
2019-03-30T00:49:48.989Z,85.30
2019-03-30T00:52:13.293Z,85.80
2019-03-30T00:54:42.111Z,86.50
2019-03-30T00:57:10.958Z,84.90
2019-03-30T00:59:39.819Z,85.30
2019-03-30T01:02:08.813Z,86.10
2019-03-30T01:04:37.942Z,86.40
2019-03-30T01:07:06.887Z,86.80
2019-03-30T01:09:35.898Z,86.30
2019-03-30T01:12:04.974Z,87.30
2019-03-30T01:14:33.895Z,86.20
2019-03-30T01:17:02.823Z,85.00
2019-03-30T01:19:31.705Z,84.30
2019-03-30T01:22:00.642Z,85.30
2019-03-30T01:24:29.564Z,84.20
2019-03-30T01:26:58.394Z,85.10
2019-03-30T01:29:27.312Z,85.80
2019-03-30T01:31:56.454Z,86.20
2019-03-30T01:34:25.253Z,86.50
2019-03-30T01:36:54.383Z,86.30
2019-03-30T01:39:23.239Z,87.00
2019-03-30T01:41:52.338Z,88.30
2019-03-30T01:44:21.153Z,87.70
2019-03-30T01:46:50.260Z,87.60
2019-03-30T01:49:19.215Z,87.80
2019-03-30T01:51:48.231Z,87.70
2019-03-30T01:54:17.117Z,88.30
2019-03-30T01:56:45.934Z,89.10
2019-03-30T01:59:14.786Z,88.70
2019-03-30T02:01:43.662Z,88.70
2019-03-30T02:04:12.464Z,89.10
2019-03-30T02:06:41.360Z,89.10
2019-03-30T02:09:10.280Z,89.20
2019-03-30T02:11:39.097Z,89.90
2019-03-30T02:14:08.017Z,89.60
2019-03-30T02:16:36.923Z,90.10
2019-03-30T02:19:05.986Z,90.50
2019-03-30T02:21:34.799Z,90.30
2019-03-30T02:24:03.652Z,90.20
2019-03-30T02:26:32.463Z,90.10
2019-03-30T02:29:01.293Z,90.40
2019-03-30T02:31:30.292Z,90.60
2019-03-30T02:33:59.101Z,90.50
2019-03-30T02:36:27.998Z,90.80
2019-03-30T02:38:58.631Z,90.80
2019-03-30T02:41:28.034Z,90.90
2019-03-30T02:43:56.901Z,91.10
2019-03-30T02:46:25.721Z,90.80
2019-03-30T02:48:54.589Z,91.20
2019-03-30T02:51:23.629Z,91.30
2019-03-30T02:53:52.693Z,91.20
2019-03-30T02:56:21.703Z,91.50
2019-03-30T02:58:50.743Z,91.40
2019-03-30T03:01:19.661Z,91.30
2019-03-30T03:03:48.647Z,91.30
2019-03-30T03:06:17.490Z,91.70
2019-03-30T03:08:46.351Z,91.50
2019-03-30T03:11:15.411Z,91.70
2019-03-30T03:13:44.269Z,91.60
2019-03-30T03:16:13.289Z,91.80
2019-03-30T03:18:42.242Z,91.90
2019-03-30T03:21:11.227Z,91.60
2019-03-30T03:23:40.101Z,91.20
2019-03-30T03:26:09.108Z,90.80
2019-03-30T03:28:38.144Z,91.00
2019-03-30T03:31:09.778Z,91.20
2019-03-30T03:33:38.745Z,91.10
2019-03-30T03:36:07.682Z,91.10
2019-03-30T03:38:36.486Z,91.10
2019-03-30T03:41:05.518Z,90.80
2019-03-30T03:43:34.452Z,91.10
2019-03-30T03:46:03.301Z,90.90
2019-03-30T03:48:32.106Z,91.10
2019-03-30T03:51:02.770Z,91.20
2019-03-30T03:53:31.796Z,91.20
2019-03-30T03:56:01.133Z,91.00
2019-03-30T03:58:33.038Z,91.20
2019-03-30T04:01:02.289Z,91.30
2019-03-30T04:03:32.493Z,91.30
2019-03-30T04:06:04.722Z,91.30
2019-03-30T04:08:33.594Z,91.70
2019-03-30T04:11:02.692Z,90.90
2019-03-30T04:13:31.507Z,90.80
2019-03-30T04:16:00.382Z,91.50
2019-03-30T04:18:29.359Z,91.70
2019-03-30T04:20:58.635Z,91.40
2019-03-30T04:23:27.783Z,91.40
2019-03-30T04:25:56.638Z,91.70
2019-03-30T04:28:25.628Z,91.70
2019-03-30T04:30:54.640Z,91.50
2019-03-30T04:33:23.539Z,91.60
2019-03-30T04:35:52.465Z,91.80
2019-03-30T04:38:21.454Z,91.60
2019-03-30T04:40:50.696Z,91.50
2019-03-30T04:43:19.695Z,91.40
2019-03-30T04:45:50.188Z,91.30
2019-03-30T04:48:19.052Z,91.90
2019-03-30T04:50:47.903Z,91.60
2019-03-30T04:53:16.875Z,91.60
2019-03-30T04:55:47.386Z,91.90
2019-03-30T04:58:16.461Z,91.80
2019-03-30T05:00:45.281Z,91.50
2019-03-30T05:03:14.427Z,91.50
2019-03-30T05:05:43.525Z,91.60
2019-03-30T05:08:12.465Z,91.60
2019-03-30T05:10:41.429Z,91.90
2019-03-30T05:13:10.379Z,92.20
2019-03-30T05:15:39.291Z,91.80
2019-03-30T05:18:08.117Z,91.90
2019-03-30T05:20:37.254Z,92.00
2019-03-30T05:23:06.226Z,91.80
2019-03-30T05:25:35.039Z,91.90
2019-03-30T05:28:03.889Z,92.00
2019-03-30T05:30:32.904Z,92.00
2019-03-30T05:33:06.184Z,92.30
2019-03-30T05:35:32.824Z,92.40
2019-03-30T05:38:01.824Z,92.30
2019-03-30T05:40:30.733Z,92.30
2019-03-30T05:42:59.573Z,92.40
2019-03-30T05:45:28.639Z,92.50
2019-03-30T05:47:57.560Z,92.70
2019-03-30T05:50:26.469Z,92.70
2019-03-30T05:52:55.331Z,92.40
2019-03-30T05:55:24.523Z,92.70
2019-03-30T05:57:53.465Z,92.90
2019-03-30T06:00:24.115Z,93.00
2019-03-30T06:02:53.105Z,93.00
2019-03-30T06:05:22.031Z,92.80
2019-03-30T06:07:50.933Z,92.40
2019-03-30T06:10:19.817Z,92.10
2019-03-30T06:12:48.979Z,92.20
2019-03-30T06:15:17.950Z,92.50
2019-03-30T06:17:46.806Z,92.10
2019-03-30T06:20:15.794Z,92.10
2019-03-30T06:22:44.635Z,92.40
2019-03-30T06:25:13.870Z,91.90
2019-03-30T06:27:42.999Z,92.00
2019-03-30T06:30:22.962Z,92.20
2019-03-30T06:32:51.790Z,92.10
2019-03-30T06:35:20.810Z,91.80
2019-03-30T06:37:49.736Z,91.60
2019-03-30T06:40:18.773Z,91.60
2019-03-30T06:42:48.203Z,91.30
2019-03-30T06:45:17.124Z,91.50
2019-03-30T06:47:46.121Z,91.20
2019-03-30T06:50:15.027Z,91.50
2019-03-30T06:52:56.812Z,91.60
2019-03-30T06:55:14.761Z,91.10
2019-03-30T06:57:43.730Z,91.40
2019-03-30T07:00:14.311Z,91.20
2019-03-30T07:02:43.255Z,91.50
2019-03-30T07:05:12.221Z,91.20
2019-03-30T07:07:41.504Z,90.90
2019-03-30T07:10:10.575Z,90.70
2019-03-30T07:12:40.561Z,91.10
2019-03-30T07:15:10.069Z,90.40
2019-03-30T07:17:42.052Z,90.20
2019-03-30T07:20:27.827Z,90.60
2019-03-30T07:23:10.760Z,90.10
2019-03-30T07:25:27.609Z,90.70
2019-03-30T07:27:56.587Z,90.60
2019-03-30T07:30:25.835Z,90.90
2019-03-30T07:32:54.953Z,90.80
2019-03-30T07:35:23.782Z,90.90
2019-03-30T07:37:52.920Z,90.80
2019-03-30T07:40:21.766Z,90.60
2019-03-30T07:42:50.803Z,90.50
2019-03-30T07:45:19.780Z,90.30
2019-03-30T07:47:48.981Z,90.10
2019-03-30T07:50:17.930Z,89.60
2019-03-30T07:52:46.823Z,89.20
2019-03-30T07:55:15.666Z,89.90
2019-03-30T07:57:44.708Z,89.80
2019-03-30T08:00:13.859Z,90.20
2019-03-30T08:02:43.073Z,88.80
2019-03-30T08:05:12.016Z,88.80
2019-03-30T08:07:40.866Z,88.30
2019-03-30T08:10:09.885Z,88.20
2019-03-30T08:12:38.762Z,87.90
2019-03-30T08:15:08.214Z,87.90
2019-03-30T08:17:37.022Z,86.90
2019-03-30T08:20:07.011Z,81.80
2019-03-30T08:22:36.515Z,81.50
2019-03-30T08:25:08.653Z,79.80
2019-03-30T08:27:37.881Z,80.20
2019-03-30T08:30:06.783Z,78.30
2019-03-30T08:32:35.566Z,74.80
2019-03-30T08:35:05.753Z,70.30
2019-03-30T08:37:34.602Z,68.60
2019-03-30T08:40:04.070Z,63.40
2019-03-30T08:42:32.952Z,62.40
2019-03-30T08:45:01.920Z,58.80
2019-03-30T08:47:30.826Z,58.10
2019-03-30T08:49:59.923Z,57.80
2019-03-30T08:52:28.908Z,56.50
2019-03-30T08:54:58.061Z,55.60
2019-03-30T08:57:27.054Z,57.10
2019-03-30T08:59:55.940Z,55.70
2019-03-30T09:02:24.843Z,54.60
2019-03-30T09:04:53.676Z,55.40
2019-03-30T09:07:22.602Z,54.90
2019-03-30T09:09:51.452Z,55.00
2019-03-30T09:12:20.443Z,53.60
2019-03-30T09:14:49.577Z,53.60
2019-03-30T09:17:18.683Z,53.30
2019-03-30T09:19:47.561Z,54.40
2019-03-30T09:22:16.411Z,52.20
2019-03-30T09:24:45.257Z,52.00
2019-03-30T09:27:14.372Z,52.50
2019-03-30T09:29:43.363Z,52.60
2019-03-30T09:32:14.646Z,52.30
2019-03-30T09:34:42.772Z,51.50
2019-03-30T09:37:11.631Z,51.10
2019-03-30T09:39:40.481Z,51.50
2019-03-30T09:42:09.377Z,52.20
2019-03-30T09:44:38.268Z,51.80
2019-03-30T09:47:07.108Z,52.20
2019-03-30T09:49:36.406Z,52.70
2019-03-30T09:52:05.296Z,52.70
2019-03-30T09:54:34.112Z,51.20
2019-03-30T09:57:02.949Z,51.10
2019-03-30T09:59:31.833Z,51.20
2019-03-30T10:02:00.805Z,50.90
2019-03-30T10:04:30.019Z,50.50
2019-03-30T10:06:58.924Z,50.10
2019-03-30T10:09:28.140Z,49.90
2019-03-30T10:11:57.146Z,48.40
2019-03-30T10:14:26.084Z,49.00
2019-03-30T10:16:55.170Z,50.00
2019-03-30T10:19:27.765Z,49.80
2019-03-30T10:21:56.194Z,47.90
2019-03-30T10:24:37.458Z,48.50
2019-03-30T10:26:56.700Z,48.70
2019-03-30T10:29:27.472Z,48.00
2019-03-30T10:31:59.742Z,47.60
2019-03-30T10:34:27.055Z,47.20
2019-03-30T10:36:55.947Z,48.20
2019-03-30T10:39:24.782Z,48.80
2019-03-30T10:41:53.991Z,48.30
2019-03-30T10:44:22.850Z,47.80
2019-03-30T10:46:51.657Z,47.80
2019-03-30T10:49:20.776Z,47.40
2019-03-30T10:51:49.799Z,48.00
2019-03-30T10:54:18.820Z,49.60
2019-03-30T10:56:47.629Z,47.80
2019-03-30T10:59:16.587Z,48.80
2019-03-30T11:01:45.543Z,49.10
2019-03-30T11:04:14.453Z,49.60
2019-03-30T11:06:43.516Z,49.80
2019-03-30T11:09:12.461Z,48.90
2019-03-30T11:11:41.356Z,50.70
2019-03-30T11:14:10.336Z,49.50
2019-03-30T11:16:39.338Z,49.20
2019-03-30T11:19:08.351Z,50.40
2019-03-30T11:21:37.462Z,50.80
2019-03-30T11:24:06.960Z,50.30
2019-03-30T11:26:36.110Z,49.60
2019-03-30T11:29:05.058Z,49.20
2019-03-30T11:31:33.904Z,50.40
2019-03-30T11:34:02.993Z,49.10
2019-03-30T11:36:31.994Z,49.70
2019-03-30T11:39:04.886Z,48.70
2019-03-30T11:41:33.800Z,47.70
2019-03-30T11:44:02.768Z,48.50
2019-03-30T11:46:31.678Z,47.20
2019-03-30T11:49:04.889Z,47.90
2019-03-30T11:51:34.114Z,47.70
2019-03-30T11:54:05.280Z,48.50
2019-03-30T11:56:33.647Z,46.80
2019-03-30T11:59:02.688Z,47.30
2019-03-30T12:01:31.946Z,45.70
2019-03-30T12:04:00.827Z,46.10
2019-03-30T12:06:29.754Z,45.90
2019-03-30T12:08:58.642Z,47.60
2019-03-30T12:11:27.838Z,45.90
2019-03-30T12:13:56.744Z,47.70
2019-03-30T12:16:25.934Z,46.10
2019-03-30T12:18:54.898Z,46.60
2019-03-30T12:21:24.004Z,45.40
2019-03-30T12:23:52.874Z,44.50
2019-03-30T12:26:21.726Z,44.00
2019-03-30T12:28:50.786Z,45.70
2019-03-30T12:31:19.846Z,45.90
2019-03-30T12:33:48.760Z,44.70
2019-03-30T12:36:17.549Z,43.30
2019-03-30T12:38:46.513Z,41.80
2019-03-30T12:41:15.407Z,42.90
2019-03-30T12:43:44.256Z,41.90
2019-03-30T12:46:13.368Z,42.30
2019-03-30T12:48:42.429Z,39.40
2019-03-30T12:51:11.417Z,39.70
2019-03-30T12:53:50.050Z,40.10
2019-03-30T12:56:10.885Z,39.20
2019-03-30T12:58:39.709Z,41.30
2019-03-30T13:01:08.607Z,40.70
2019-03-30T13:03:37.468Z,40.60
2019-03-30T13:06:06.343Z,40.00
2019-03-30T13:08:35.415Z,40.30
2019-03-30T13:11:04.267Z,40.20
2019-03-30T13:13:33.378Z,40.60
2019-03-30T13:16:02.266Z,38.80
2019-03-30T13:18:31.164Z,38.70
2019-03-30T13:21:00.300Z,39.60
2019-03-30T13:23:29.266Z,38.00
2019-03-30T13:26:03.915Z,39.00
2019-03-30T13:28:28.823Z,38.30
2019-03-30T13:30:58.074Z,37.80
2019-03-30T13:33:27.067Z,37.10
2019-03-30T13:35:56.055Z,37.20
2019-03-30T13:38:25.927Z,35.60
2019-03-30T13:40:55.116Z,36.20
2019-03-30T13:43:24.221Z,35.50
2019-03-30T13:45:53.172Z,33.50
2019-03-30T13:48:22.051Z,31.40
2019-03-30T13:50:51.088Z,31.70
2019-03-30T13:53:20.144Z,31.50
2019-03-30T13:55:49.030Z,28.30
2019-03-30T13:58:18.026Z,29.30
2019-03-30T14:00:47.015Z,31.30
2019-03-30T14:03:16.200Z,31.40
2019-03-30T14:05:45.032Z,31.00
2019-03-30T14:08:13.833Z,32.00
2019-03-30T14:10:42.737Z,31.40
2019-03-30T14:13:11.805Z,32.30
2019-03-30T14:15:40.879Z,31.70
2019-03-30T14:18:09.687Z,32.10
2019-03-30T14:20:38.597Z,32.80
2019-03-30T14:23:07.462Z,33.30
2019-03-30T14:25:36.527Z,34.40
2019-03-30T14:28:05.554Z,35.30
2019-03-30T14:30:34.487Z,34.90
2019-03-30T14:33:03.297Z,35.90
2019-03-30T14:35:32.292Z,36.30
2019-03-30T14:38:01.376Z,36.00
2019-03-30T14:40:30.439Z,35.50
2019-03-30T14:42:59.269Z,34.10
2019-03-30T14:45:28.131Z,33.90
2019-03-30T14:47:58.081Z,33.60
2019-03-30T14:50:27.182Z,33.60
2019-03-30T14:52:56.069Z,34.50
2019-03-30T14:55:24.865Z,34.00
2019-03-30T14:57:53.978Z,33.30
2019-03-30T15:00:23.078Z,32.50
2019-03-30T15:02:52.479Z,31.60
2019-03-30T15:05:21.349Z,33.20
2019-03-30T15:07:50.342Z,31.30
2019-03-30T15:10:19.300Z,31.10
2019-03-30T15:12:48.404Z,32.10
2019-03-30T15:15:17.323Z,32.70
2019-03-30T15:17:46.178Z,32.10
2019-03-30T15:20:14.991Z,33.70
2019-03-30T15:22:44.198Z,34.00
2019-03-30T15:25:13.522Z,33.30
2019-03-30T15:27:42.708Z,32.00
2019-03-30T15:30:12.480Z,35.20
2019-03-30T15:32:41.399Z,36.60
2019-03-30T15:35:10.400Z,36.10
2019-03-30T15:37:39.337Z,36.70
2019-03-30T15:40:08.219Z,36.60
2019-03-30T15:42:40.063Z,35.90
2019-03-30T15:45:11.425Z,34.40
2019-03-30T15:47:40.422Z,35.00
2019-03-30T15:50:09.441Z,34.90
2019-03-30T15:52:38.291Z,35.10
2019-03-30T15:55:08.114Z,32.30
2019-03-30T15:57:37.084Z,29.90
2019-03-30T16:00:11.536Z,29.80
2019-03-30T16:02:40.653Z,28.70
2019-03-30T16:05:09.516Z,30.30
2019-03-30T16:07:38.385Z,28.50
2019-03-30T16:10:07.513Z,28.00
2019-03-30T16:12:36.621Z,29.60
2019-03-30T16:15:06.002Z,28.90
2019-03-30T16:17:35.303Z,26.10
2019-03-30T16:20:08.288Z,28.00
2019-03-30T16:22:37.069Z,27.30
2019-03-30T16:25:07.133Z,27.80
2019-03-30T16:27:39.014Z,28.20
2019-03-30T16:30:07.816Z,26.40
2019-03-30T16:32:36.749Z,26.40
2019-03-30T16:35:06.377Z,27.40
2019-03-30T16:37:35.202Z,30.70
2019-03-30T16:40:04.914Z,31.10
2019-03-30T16:42:34.070Z,28.50
2019-03-30T16:45:03.078Z,30.80
2019-03-30T16:47:34.755Z,29.40
2019-03-30T16:50:04.638Z,29.00
2019-03-30T16:52:33.764Z,29.30
2019-03-30T16:55:02.913Z,28.00
2019-03-30T16:57:43.118Z,27.80
2019-03-30T17:00:07.256Z,27.40
2019-03-30T17:02:36.626Z,27.50
2019-03-30T17:05:07.489Z,27.00
2019-03-30T17:07:36.470Z,27.50
2019-03-30T17:10:08.818Z,27.30
2019-03-30T17:12:37.833Z,28.30
2019-03-30T17:15:06.931Z,29.40
2019-03-30T17:17:36.024Z,33.50
2019-03-30T17:20:06.859Z,34.40
2019-03-30T17:22:37.115Z,34.80
2019-03-30T17:25:06.812Z,32.00
2019-03-30T17:27:36.221Z,32.80
2019-03-30T17:30:09.038Z,35.70
2019-03-30T17:32:37.966Z,31.80
2019-03-30T17:35:06.936Z,35.10
2019-03-30T17:37:36.469Z,38.60
2019-03-30T17:40:08.513Z,39.50
2019-03-30T17:42:38.858Z,37.90
2019-03-30T17:45:09.201Z,38.30
2019-03-30T17:47:38.744Z,40.10
2019-03-30T17:50:07.923Z,41.20
2019-03-30T17:52:36.917Z,37.20
2019-03-30T17:55:05.963Z,33.60
2019-03-30T17:57:35.031Z,33.40
2019-03-30T18:00:09.715Z,36.50
2019-03-30T18:02:44.971Z,38.90
2019-03-30T18:05:14.096Z,40.30
2019-03-30T18:07:42.983Z,37.50
2019-03-30T18:10:12.064Z,40.00
2019-03-30T18:12:40.986Z,37.10
2019-03-30T18:15:10.125Z,37.90
2019-03-30T18:17:39.183Z,41.80
2019-03-30T18:20:08.017Z,42.20
2019-03-30T18:22:36.828Z,42.60
2019-03-30T18:25:06.404Z,45.60
2019-03-30T18:27:35.402Z,45.10
2019-03-30T18:30:06.585Z,46.10
2019-03-30T18:32:36.277Z,46.60
2019-03-30T18:35:06.349Z,48.30
2019-03-30T18:37:36.959Z,47.90
2019-03-30T18:40:07.293Z,46.40
2019-03-30T18:42:39.158Z,48.80
2019-03-30T18:45:08.189Z,48.60
2019-03-30T18:47:37.285Z,48.20
2019-03-30T18:50:07.446Z,48.90
2019-03-30T18:52:36.515Z,50.70
2019-03-30T18:55:06.711Z,52.00
2019-03-30T18:57:35.661Z,51.00
2019-03-30T19:00:07.064Z,51.60
2019-03-30T19:02:36.208Z,51.50
2019-03-30T19:05:05.805Z,51.60
2019-03-30T19:07:34.743Z,50.80
2019-03-30T19:10:04.192Z,51.20
2019-03-30T19:12:33.248Z,51.90
2019-03-30T19:15:02.345Z,54.10
2019-03-30T19:17:31.439Z,54.20
2019-03-30T19:20:00.440Z,52.50
2019-03-30T19:22:29.392Z,47.40
2019-03-30T19:24:58.411Z,47.50
2019-03-30T19:27:27.310Z,47.30
2019-03-30T19:29:56.129Z,49.60
2019-03-30T19:32:25.267Z,47.00
2019-03-30T19:34:54.202Z,49.00
2019-03-30T19:37:23.164Z,51.30
2019-03-30T19:39:52.212Z,50.40
2019-03-30T19:42:21.361Z,51.40
2019-03-30T19:44:50.395Z,54.70
2019-03-30T19:47:19.627Z,54.60
2019-03-30T19:49:48.669Z,54.30
2019-03-30T19:52:17.799Z,54.20
2019-03-30T19:54:47.107Z,54.50
2019-03-30T19:57:16.206Z,53.90
2019-03-30T19:59:45.176Z,53.70
2019-03-30T20:02:14.642Z,54.50
2019-03-30T20:04:43.746Z,54.40
2019-03-30T20:07:12.994Z,52.40
2019-03-30T20:09:42.885Z,54.00
2019-03-30T20:12:12.072Z,56.50
2019-03-30T20:14:41.179Z,54.40
2019-03-30T20:17:11.780Z,55.10
2019-03-30T20:19:40.784Z,54.80
2019-03-30T20:22:09.899Z,55.30
2019-03-30T20:24:38.815Z,55.30
2019-03-30T20:27:07.976Z,57.70
2019-03-30T20:29:37.037Z,58.90
2019-03-30T20:32:06.346Z,56.70
2019-03-30T20:34:35.442Z,57.90
2019-03-30T20:37:05.252Z,58.90
2019-03-30T20:39:35.357Z,55.80
2019-03-30T20:42:04.368Z,59.10
2019-03-30T20:44:33.297Z,58.00
2019-03-30T20:47:02.628Z,58.70
2019-03-30T20:49:31.662Z,59.40
2019-03-30T20:52:00.600Z,58.80
2019-03-30T20:54:32.771Z,59.20
2019-03-30T20:57:01.771Z,59.10
2019-03-30T20:59:39.783Z,59.30
2019-03-30T21:02:01.514Z,61.50
2019-03-30T21:04:30.476Z,61.10
2019-03-30T21:06:59.690Z,60.20
2019-03-30T21:09:28.990Z,62.30
2019-03-30T21:11:57.964Z,61.20
2019-03-30T21:14:27.397Z,62.60
2019-03-30T21:16:56.516Z,61.70
2019-03-30T21:19:25.729Z,62.20
2019-03-30T21:21:54.661Z,62.30
2019-03-30T21:24:23.752Z,61.20
2019-03-30T21:26:53.860Z,60.60
2019-03-30T21:29:25.656Z,62.80
2019-03-30T21:31:54.880Z,60.40
2019-03-30T21:34:24.062Z,60.00
2019-03-30T21:36:53.169Z,60.70
2019-03-30T21:39:22.163Z,60.00
2019-03-30T21:41:51.271Z,59.40
2019-03-30T21:44:22.371Z,60.30
2019-03-30T21:46:51.153Z,61.60
2019-03-30T21:49:20.288Z,62.40
2019-03-30T21:51:49.487Z,59.60
2019-03-30T21:54:18.405Z,58.80
2019-03-30T21:56:47.394Z,60.60
2019-03-30T21:59:16.291Z,60.80
2019-03-30T22:01:45.172Z,62.00
2019-03-30T22:04:14.339Z,61.70
2019-03-30T22:06:43.366Z,61.80
2019-03-30T22:09:12.388Z,62.40
2019-03-30T22:11:41.328Z,63.90
2019-03-30T22:14:10.250Z,63.90
2019-03-30T22:16:39.278Z,65.10
2019-03-30T22:19:08.230Z,63.30
2019-03-30T22:21:40.173Z,63.40
2019-03-30T22:24:09.311Z,65.60
2019-03-30T22:26:38.992Z,64.80
2019-03-30T22:29:07.890Z,65.60
2019-03-30T22:31:36.813Z,66.60
2019-03-30T22:34:05.865Z,67.10
2019-03-30T22:36:34.775Z,66.40
2019-03-30T22:39:05.456Z,68.80
2019-03-30T22:41:34.615Z,68.60
2019-03-30T22:44:03.631Z,68.30
2019-03-30T22:46:32.485Z,68.50
2019-03-30T22:49:01.421Z,68.10
2019-03-30T22:51:30.492Z,67.20
2019-03-30T22:54:00.652Z,68.30
2019-03-30T22:56:29.479Z,68.40
2019-03-30T22:58:58.411Z,69.10
2019-03-30T23:01:29.767Z,68.40
2019-03-30T23:03:58.656Z,69.20
2019-03-30T23:06:27.526Z,67.90
2019-03-30T23:08:57.661Z,69.10
2019-03-30T23:11:26.704Z,69.70
2019-03-30T23:13:55.711Z,69.60
2019-03-30T23:16:24.927Z,70.40
2019-03-30T23:18:53.746Z,69.30
2019-03-30T23:21:22.617Z,70.40
2019-03-30T23:23:51.541Z,71.00
2019-03-30T23:26:20.448Z,69.50
2019-03-30T23:28:49.323Z,71.20
2019-03-30T23:31:18.201Z,71.20
2019-03-30T23:33:47.081Z,70.90
2019-03-30T23:36:15.894Z,71.30
2019-03-30T23:38:44.887Z,72.40
2019-03-30T23:41:13.820Z,72.40
2019-03-30T23:43:42.813Z,69.60
2019-03-30T23:46:11.878Z,68.30
2019-03-30T23:48:41.019Z,69.40
2019-03-30T23:51:10.074Z,70.50
2019-03-30T23:53:38.960Z,70.00
2019-03-30T23:56:11.113Z,69.20
2019-03-30T23:58:40.325Z,69.40
